sensor_id;sensor_type;location;lat;lon;timestamp;P1;durP1;ratioP1;P2;durP2;ratioP2
9260;SDS011;4667;42.726;23.252;2023-04-01T00:01:11;16.50;;;9.23;;
9260;SDS011;4667;42.726;23.252;2023-04-01T00:03:40;16.57;;;8.80;;
9260;SDS011;4667;42.726;23.252;2023-04-01T00:06:07;19.17;;;9.37;;
9260;SDS011;4667;42.726;23.252;2023-04-01T00:08:43;12.10;;;7.07;;
9260;SDS011;4667;42.726;23.252;2023-04-01T00:11:12;11.33;;;8.03;;
9260;SDS011;4667;42.726;23.252;2023-04-01T00:13:39;14.60;;;7.67;;
9260;SDS011;4667;42.726;23.252;2023-04-01T00:16:06;11.70;;;6.80;;
9260;SDS011;4667;42.726;23.252;2023-04-01T00:18:34;12.83;;;7.30;;
9260;SDS011;4667;42.726;23.252;2023-04-01T00:21:00;14.03;;;6.80;;
9260;SDS011;4667;42.726;23.252;2023-04-01T00:23:27;11.13;;;6.80;;
9260;SDS011;4667;42.726;23.252;2023-04-01T00:25:55;12.70;;;6.70;;
9260;SDS011;4667;42.726;23.252;2023-04-01T00:28:22;18.10;;;8.60;;
9260;SDS011;4667;42.726;23.252;2023-04-01T00:30:49;11.23;;;6.03;;
9260;SDS011;4667;42.726;23.252;2023-04-01T00:33:15;11.60;;;6.97;;
9260;SDS011;4667;42.726;23.252;2023-04-01T00:35:42;16.50;;;8.07;;
9260;SDS011;4667;42.726;23.252;2023-04-01T00:38:10;17.63;;;7.10;;
9260;SDS011;4667;42.726;23.252;2023-04-01T00:40:38;10.83;;;6.90;;
9260;SDS011;4667;42.726;23.252;2023-04-01T00:43:12;12.77;;;6.57;;
9260;SDS011;4667;42.726;23.252;2023-04-01T00:45:43;13.60;;;6.77;;
9260;SDS011;4667;42.726;23.252;2023-04-01T00:48:12;8.50;;;6.17;;
9260;SDS011;4667;42.726;23.252;2023-04-01T00:50:43;11.40;;;5.87;;
9260;SDS011;4667;42.726;23.252;2023-04-01T00:53:13;17.80;;;6.63;;
9260;SDS011;4667;42.726;23.252;2023-04-01T00:55:41;9.33;;;5.90;;
9260;SDS011;4667;42.726;23.252;2023-04-01T00:58:14;11.47;;;5.80;;
9260;SDS011;4667;42.726;23.252;2023-04-01T01:00:45;9.77;;;5.83;;
9260;SDS011;4667;42.726;23.252;2023-04-01T01:03:13;10.27;;;5.70;;
9260;SDS011;4667;42.726;23.252;2023-04-01T01:05:46;12.47;;;5.90;;
9260;SDS011;4667;42.726;23.252;2023-04-01T01:08:29;12.00;;;5.60;;
9260;SDS011;4667;42.726;23.252;2023-04-01T01:11:06;14.07;;;5.20;;
9260;SDS011;4667;42.726;23.252;2023-04-01T01:13:40;15.60;;;5.93;;
9260;SDS011;4667;42.726;23.252;2023-04-01T01:16:15;9.70;;;5.90;;
9260;SDS011;4667;42.726;23.252;2023-04-01T01:18:50;10.87;;;6.20;;
9260;SDS011;4667;42.726;23.252;2023-04-01T01:21:31;15.57;;;8.50;;
9260;SDS011;4667;42.726;23.252;2023-04-01T01:24:11;13.50;;;8.30;;
9260;SDS011;4667;42.726;23.252;2023-04-01T01:26:53;18.77;;;8.30;;
9260;SDS011;4667;42.726;23.252;2023-04-01T01:29:34;11.70;;;8.20;;
9260;SDS011;4667;42.726;23.252;2023-04-01T01:32:14;11.53;;;6.77;;
9260;SDS011;4667;42.726;23.252;2023-04-01T01:34:53;9.73;;;6.83;;
9260;SDS011;4667;42.726;23.252;2023-04-01T01:37:26;11.03;;;6.27;;
9260;SDS011;4667;42.726;23.252;2023-04-01T01:39:56;9.77;;;6.10;;
9260;SDS011;4667;42.726;23.252;2023-04-01T01:42:27;10.23;;;5.53;;
9260;SDS011;4667;42.726;23.252;2023-04-01T01:44:57;13.57;;;6.70;;
9260;SDS011;4667;42.726;23.252;2023-04-01T01:47:26;12.43;;;5.47;;
9260;SDS011;4667;42.726;23.252;2023-04-01T01:49:55;9.73;;;6.37;;
9260;SDS011;4667;42.726;23.252;2023-04-01T01:52:23;11.73;;;6.70;;
9260;SDS011;4667;42.726;23.252;2023-04-01T01:54:52;11.03;;;6.47;;
9260;SDS011;4667;42.726;23.252;2023-04-01T01:57:22;9.63;;;6.30;;
9260;SDS011;4667;42.726;23.252;2023-04-01T01:59:51;12.20;;;7.23;;
9260;SDS011;4667;42.726;23.252;2023-04-01T02:02:20;11.53;;;6.57;;
9260;SDS011;4667;42.726;23.252;2023-04-01T02:04:48;11.47;;;6.10;;
9260;SDS011;4667;42.726;23.252;2023-04-01T02:07:18;12.30;;;7.70;;
9260;SDS011;4667;42.726;23.252;2023-04-01T02:09:47;10.37;;;6.93;;
9260;SDS011;4667;42.726;23.252;2023-04-01T02:12:16;15.10;;;7.20;;
9260;SDS011;4667;42.726;23.252;2023-04-01T02:14:47;13.60;;;7.17;;
9260;SDS011;4667;42.726;23.252;2023-04-01T02:17:19;10.03;;;6.40;;
9260;SDS011;4667;42.726;23.252;2023-04-01T02:19:49;8.43;;;6.53;;
9260;SDS011;4667;42.726;23.252;2023-04-01T02:22:20;10.53;;;7.33;;
9260;SDS011;4667;42.726;23.252;2023-04-01T02:24:50;12.03;;;6.77;;
9260;SDS011;4667;42.726;23.252;2023-04-01T02:27:21;9.30;;;5.77;;
9260;SDS011;4667;42.726;23.252;2023-04-01T02:29:48;9.53;;;6.33;;
9260;SDS011;4667;42.726;23.252;2023-04-01T02:32:15;12.90;;;6.60;;
9260;SDS011;4667;42.726;23.252;2023-04-01T02:34:43;19.43;;;6.40;;
9260;SDS011;4667;42.726;23.252;2023-04-01T02:37:11;13.77;;;6.57;;
9260;SDS011;4667;42.726;23.252;2023-04-01T02:39:39;13.67;;;6.80;;
9260;SDS011;4667;42.726;23.252;2023-04-01T02:42:07;7.23;;;5.67;;
9260;SDS011;4667;42.726;23.252;2023-04-01T02:44:35;15.73;;;7.03;;
9260;SDS011;4667;42.726;23.252;2023-04-01T02:47:02;10.27;;;5.90;;
9260;SDS011;4667;42.726;23.252;2023-04-01T02:49:29;12.90;;;8.20;;
9260;SDS011;4667;42.726;23.252;2023-04-01T02:51:56;13.23;;;8.37;;
9260;SDS011;4667;42.726;23.252;2023-04-01T02:54:23;12.63;;;7.63;;
9260;SDS011;4667;42.726;23.252;2023-04-01T02:56:50;16.40;;;8.60;;
9260;SDS011;4667;42.726;23.252;2023-04-01T02:59:16;16.63;;;8.37;;
9260;SDS011;4667;42.726;23.252;2023-04-01T03:01:45;14.17;;;8.67;;
9260;SDS011;4667;42.726;23.252;2023-04-01T03:04:11;17.30;;;8.63;;
9260;SDS011;4667;42.726;23.252;2023-04-01T03:06:38;12.90;;;7.23;;
9260;SDS011;4667;42.726;23.252;2023-04-01T03:09:05;15.67;;;8.13;;
9260;SDS011;4667;42.726;23.252;2023-04-01T03:11:32;14.87;;;7.47;;
9260;SDS011;4667;42.726;23.252;2023-04-01T03:13:58;10.63;;;7.20;;
9260;SDS011;4667;42.726;23.252;2023-04-01T03:16:25;12.57;;;7.00;;
9260;SDS011;4667;42.726;23.252;2023-04-01T03:18:53;8.87;;;6.27;;
9260;SDS011;4667;42.726;23.252;2023-04-01T03:21:24;9.80;;;6.43;;
9260;SDS011;4667;42.726;23.252;2023-04-01T03:23:50;6.90;;;5.27;;
9260;SDS011;4667;42.726;23.252;2023-04-01T03:26:17;8.83;;;5.67;;
9260;SDS011;4667;42.726;23.252;2023-04-01T03:28:44;7.20;;;5.37;;
9260;SDS011;4667;42.726;23.252;2023-04-01T03:31:11;13.20;;;6.53;;
9260;SDS011;4667;42.726;23.252;2023-04-01T03:33:39;10.33;;;6.33;;
9260;SDS011;4667;42.726;23.252;2023-04-01T03:36:08;7.30;;;5.67;;
9260;SDS011;4667;42.726;23.252;2023-04-01T03:38:36;5.97;;;5.27;;
9260;SDS011;4667;42.726;23.252;2023-04-01T03:41:03;7.63;;;5.17;;
9260;SDS011;4667;42.726;23.252;2023-04-01T03:43:30;9.10;;;5.43;;
9260;SDS011;4667;42.726;23.252;2023-04-01T03:45:57;10.63;;;6.17;;
9260;SDS011;4667;42.726;23.252;2023-04-01T03:48:24;8.80;;;5.47;;
9260;SDS011;4667;42.726;23.252;2023-04-01T03:50:51;9.73;;;5.90;;
9260;SDS011;4667;42.726;23.252;2023-04-01T03:53:20;9.30;;;5.83;;
9260;SDS011;4667;42.726;23.252;2023-04-01T03:55:46;11.43;;;7.23;;
9260;SDS011;4667;42.726;23.252;2023-04-01T03:58:13;10.10;;;5.83;;
9260;SDS011;4667;42.726;23.252;2023-04-01T04:00:40;9.03;;;6.47;;
9260;SDS011;4667;42.726;23.252;2023-04-01T04:03:07;9.27;;;6.70;;
9260;SDS011;4667;42.726;23.252;2023-04-01T04:05:34;7.80;;;6.07;;
9260;SDS011;4667;42.726;23.252;2023-04-01T04:08:01;9.73;;;5.70;;
9260;SDS011;4667;42.726;23.252;2023-04-01T04:10:29;8.03;;;6.07;;
9260;SDS011;4667;42.726;23.252;2023-04-01T04:12:56;9.50;;;6.07;;
9260;SDS011;4667;42.726;23.252;2023-04-01T04:15:23;9.77;;;6.30;;
9260;SDS011;4667;42.726;23.252;2023-04-01T04:17:50;9.77;;;6.13;;
9260;SDS011;4667;42.726;23.252;2023-04-01T04:20:16;8.07;;;6.17;;
9260;SDS011;4667;42.726;23.252;2023-04-01T04:22:43;7.73;;;5.87;;
9260;SDS011;4667;42.726;23.252;2023-04-01T04:25:10;7.07;;;4.77;;
9260;SDS011;4667;42.726;23.252;2023-04-01T04:27:38;11.40;;;5.87;;
9260;SDS011;4667;42.726;23.252;2023-04-01T04:30:07;8.77;;;5.77;;
9260;SDS011;4667;42.726;23.252;2023-04-01T04:32:35;14.70;;;6.33;;
9260;SDS011;4667;42.726;23.252;2023-04-01T04:35:02;6.97;;;4.90;;
9260;SDS011;4667;42.726;23.252;2023-04-01T04:37:29;9.47;;;5.50;;
9260;SDS011;4667;42.726;23.252;2023-04-01T04:40:10;6.47;;;4.97;;
9260;SDS011;4667;42.726;23.252;2023-04-01T04:42:39;12.73;;;5.77;;
9260;SDS011;4667;42.726;23.252;2023-04-01T04:45:06;7.63;;;5.13;;
9260;SDS011;4667;42.726;23.252;2023-04-01T04:47:33;10.17;;;4.30;;
9260;SDS011;4667;42.726;23.252;2023-04-01T04:49:59;8.00;;;4.57;;
9260;SDS011;4667;42.726;23.252;2023-04-01T04:52:26;8.50;;;5.70;;
9260;SDS011;4667;42.726;23.252;2023-04-01T04:54:53;9.93;;;5.60;;
9260;SDS011;4667;42.726;23.252;2023-04-01T04:57:20;5.27;;;3.87;;
9260;SDS011;4667;42.726;23.252;2023-04-01T04:59:48;9.43;;;5.57;;
9260;SDS011;4667;42.726;23.252;2023-04-01T05:02:15;5.87;;;4.43;;
9260;SDS011;4667;42.726;23.252;2023-04-01T05:04:41;10.53;;;5.00;;
9260;SDS011;4667;42.726;23.252;2023-04-01T05:07:08;7.10;;;4.67;;
9260;SDS011;4667;42.726;23.252;2023-04-01T05:09:35;7.63;;;4.60;;
9260;SDS011;4667;42.726;23.252;2023-04-01T05:12:02;7.30;;;4.97;;
9260;SDS011;4667;42.726;23.252;2023-04-01T05:14:29;8.43;;;4.60;;
9260;SDS011;4667;42.726;23.252;2023-04-01T05:16:57;13.03;;;6.13;;
9260;SDS011;4667;42.726;23.252;2023-04-01T05:19:24;8.60;;;5.27;;
9260;SDS011;4667;42.726;23.252;2023-04-01T05:21:51;4.77;;;4.13;;
9260;SDS011;4667;42.726;23.252;2023-04-01T05:24:19;11.13;;;4.67;;
9260;SDS011;4667;42.726;23.252;2023-04-01T05:26:45;12.00;;;4.50;;
9260;SDS011;4667;42.726;23.252;2023-04-01T05:29:12;8.47;;;4.77;;
9260;SDS011;4667;42.726;23.252;2023-04-01T05:31:39;15.97;;;4.97;;
9260;SDS011;4667;42.726;23.252;2023-04-01T05:34:07;6.13;;;4.70;;
9260;SDS011;4667;42.726;23.252;2023-04-01T05:36:34;6.17;;;4.47;;
9260;SDS011;4667;42.726;23.252;2023-04-01T05:39:00;10.97;;;4.57;;
9260;SDS011;4667;42.726;23.252;2023-04-01T05:41:28;7.43;;;4.40;;
9260;SDS011;4667;42.726;23.252;2023-04-01T05:43:55;6.40;;;4.63;;
9260;SDS011;4667;42.726;23.252;2023-04-01T05:46:22;6.67;;;4.20;;
9260;SDS011;4667;42.726;23.252;2023-04-01T05:48:48;9.67;;;5.33;;
9260;SDS011;4667;42.726;23.252;2023-04-01T05:51:16;7.93;;;4.10;;
9260;SDS011;4667;42.726;23.252;2023-04-01T05:53:44;7.70;;;4.63;;
9260;SDS011;4667;42.726;23.252;2023-04-01T05:56:10;9.13;;;3.93;;
9260;SDS011;4667;42.726;23.252;2023-04-01T05:58:38;8.43;;;4.80;;
9260;SDS011;4667;42.726;23.252;2023-04-01T06:01:06;7.23;;;4.73;;
9260;SDS011;4667;42.726;23.252;2023-04-01T06:03:33;9.43;;;4.37;;
9260;SDS011;4667;42.726;23.252;2023-04-01T06:06:00;6.17;;;4.40;;
9260;SDS011;4667;42.726;23.252;2023-04-01T06:08:30;8.10;;;4.40;;
9260;SDS011;4667;42.726;23.252;2023-04-01T06:11:01;7.03;;;4.60;;
9260;SDS011;4667;42.726;23.252;2023-04-01T06:13:42;8.00;;;4.73;;
9260;SDS011;4667;42.726;23.252;2023-04-01T06:16:19;9.23;;;5.73;;
9260;SDS011;4667;42.726;23.252;2023-04-01T06:18:58;7.60;;;5.33;;
9260;SDS011;4667;42.726;23.252;2023-04-01T06:21:33;9.73;;;5.10;;
9260;SDS011;4667;42.726;23.252;2023-04-01T06:27:19;7.33;;;4.10;;
9260;SDS011;4667;42.726;23.252;2023-04-01T06:30:02;7.40;;;3.83;;
9260;SDS011;4667;42.726;23.252;2023-04-01T06:32:40;6.80;;;4.27;;
9260;SDS011;4667;42.726;23.252;2023-04-01T06:35:25;8.20;;;5.20;;
9260;SDS011;4667;42.726;23.252;2023-04-01T06:38:06;7.53;;;5.23;;
9260;SDS011;4667;42.726;23.252;2023-04-01T06:43:44;12.37;;;4.20;;
9260;SDS011;4667;42.726;23.252;2023-04-01T06:46:20;7.00;;;4.57;;
9260;SDS011;4667;42.726;23.252;2023-04-01T06:49:02;6.37;;;4.40;;
9260;SDS011;4667;42.726;23.252;2023-04-01T06:51:51;7.57;;;4.63;;
9260;SDS011;4667;42.726;23.252;2023-04-01T06:54:25;8.17;;;4.00;;
9260;SDS011;4667;42.726;23.252;2023-04-01T06:56:59;11.30;;;5.90;;
9260;SDS011;4667;42.726;23.252;2023-04-01T06:59:32;8.77;;;5.43;;
9260;SDS011;4667;42.726;23.252;2023-04-01T07:02:04;7.17;;;4.03;;
9260;SDS011;4667;42.726;23.252;2023-04-01T07:04:39;12.50;;;5.17;;
9260;SDS011;4667;42.726;23.252;2023-04-01T07:07:12;4.93;;;3.93;;
9260;SDS011;4667;42.726;23.252;2023-04-01T07:09:46;6.67;;;4.10;;
9260;SDS011;4667;42.726;23.252;2023-04-01T07:12:21;8.77;;;3.13;;
9260;SDS011;4667;42.726;23.252;2023-04-01T07:14:55;5.07;;;3.10;;
9260;SDS011;4667;42.726;23.252;2023-04-01T07:17:25;8.17;;;3.50;;
9260;SDS011;4667;42.726;23.252;2023-04-01T07:19:57;6.23;;;2.70;;
9260;SDS011;4667;42.726;23.252;2023-04-01T07:22:31;3.63;;;2.90;;
9260;SDS011;4667;42.726;23.252;2023-04-01T07:25:02;5.37;;;2.67;;
9260;SDS011;4667;42.726;23.252;2023-04-01T07:27:33;3.30;;;2.77;;
9260;SDS011;4667;42.726;23.252;2023-04-01T07:30:00;8.50;;;3.17;;
9260;SDS011;4667;42.726;23.252;2023-04-01T07:32:37;7.00;;;2.97;;
9260;SDS011;4667;42.726;23.252;2023-04-01T07:35:21;6.80;;;2.73;;
9260;SDS011;4667;42.726;23.252;2023-04-01T07:38:05;7.70;;;2.27;;
9260;SDS011;4667;42.726;23.252;2023-04-01T07:40:42;7.37;;;2.80;;
9260;SDS011;4667;42.726;23.252;2023-04-01T07:43:25;6.53;;;2.83;;
9260;SDS011;4667;42.726;23.252;2023-04-01T07:46:07;5.47;;;2.83;;
9260;SDS011;4667;42.726;23.252;2023-04-01T07:48:47;5.57;;;2.93;;
9260;SDS011;4667;42.726;23.252;2023-04-01T07:51:21;14.80;;;3.53;;
9260;SDS011;4667;42.726;23.252;2023-04-01T07:53:57;4.67;;;2.77;;
9260;SDS011;4667;42.726;23.252;2023-04-01T07:56:31;4.07;;;2.97;;
9260;SDS011;4667;42.726;23.252;2023-04-01T07:59:09;6.90;;;2.83;;
9260;SDS011;4667;42.726;23.252;2023-04-01T08:01:45;5.23;;;3.10;;
9260;SDS011;4667;42.726;23.252;2023-04-01T08:04:26;4.70;;;3.37;;
9260;SDS011;4667;42.726;23.252;2023-04-01T08:07:12;3.40;;;2.87;;
9260;SDS011;4667;42.726;23.252;2023-04-01T08:09:42;3.70;;;2.70;;
9260;SDS011;4667;42.726;23.252;2023-04-01T08:12:21;9.10;;;4.80;;
9260;SDS011;4667;42.726;23.252;2023-04-01T08:15:02;8.67;;;2.87;;
9260;SDS011;4667;42.726;23.252;2023-04-01T08:17:38;6.30;;;2.83;;
9260;SDS011;4667;42.726;23.252;2023-04-01T08:20:14;7.97;;;4.20;;
9260;SDS011;4667;42.726;23.252;2023-04-01T08:22:50;3.90;;;2.80;;
9260;SDS011;4667;42.726;23.252;2023-04-01T08:25:21;9.03;;;3.07;;
9260;SDS011;4667;42.726;23.252;2023-04-01T08:27:53;3.37;;;2.80;;
9260;SDS011;4667;42.726;23.252;2023-04-01T08:30:28;4.10;;;2.70;;
9260;SDS011;4667;42.726;23.252;2023-04-01T08:33:04;5.20;;;3.33;;
9260;SDS011;4667;42.726;23.252;2023-04-01T08:35:37;6.50;;;2.73;;
9260;SDS011;4667;42.726;23.252;2023-04-01T08:38:09;5.37;;;3.30;;
9260;SDS011;4667;42.726;23.252;2023-04-01T08:40:48;3.95;;;2.47;;
9260;SDS011;4667;42.726;23.252;2023-04-01T08:43:25;6.57;;;2.45;;
9260;SDS011;4667;42.726;23.252;2023-04-01T08:46:18;3.83;;;2.47;;
9260;SDS011;4667;42.726;23.252;2023-04-01T08:49:01;3.95;;;2.40;;
9260;SDS011;4667;42.726;23.252;2023-04-01T08:54:39;5.18;;;2.30;;
9260;SDS011;4667;42.726;23.252;2023-04-01T08:57:21;2.67;;;1.83;;
9260;SDS011;4667;42.726;23.252;2023-04-01T09:00:04;3.17;;;2.17;;
9260;SDS011;4667;42.726;23.252;2023-04-01T09:08:42;5.93;;;2.40;;
9260;SDS011;4667;42.726;23.252;2023-04-01T09:11:23;6.35;;;2.38;;
9260;SDS011;4667;42.726;23.252;2023-04-01T09:17:24;7.53;;;2.83;;
9260;SDS011;4667;42.726;23.252;2023-04-01T09:20:17;3.58;;;2.90;;
9260;SDS011;4667;42.726;23.252;2023-04-01T09:22:53;2.90;;;1.92;;
9260;SDS011;4667;42.726;23.252;2023-04-01T09:25:38;7.40;;;2.30;;
9260;SDS011;4667;42.726;23.252;2023-04-01T09:28:18;6.40;;;2.03;;
9260;SDS011;4667;42.726;23.252;2023-04-01T09:31:00;3.88;;;2.17;;
9260;SDS011;4667;42.726;23.252;2023-04-01T09:34:06;4.68;;;2.00;;
9260;SDS011;4667;42.726;23.252;2023-04-01T09:37:03;2.58;;;1.90;;
9260;SDS011;4667;42.726;23.252;2023-04-01T09:39:49;2.65;;;1.77;;
9260;SDS011;4667;42.726;23.252;2023-04-01T09:42:41;12.85;;;1.90;;
9260;SDS011;4667;42.726;23.252;2023-04-01T09:45:14;5.65;;;1.85;;
9260;SDS011;4667;42.726;23.252;2023-04-01T09:51:09;3.97;;;2.22;;
9260;SDS011;4667;42.726;23.252;2023-04-01T09:53:56;6.63;;;1.70;;
9260;SDS011;4667;42.726;23.252;2023-04-01T10:06:51;2.72;;;2.00;;
9260;SDS011;4667;42.726;23.252;2023-04-01T10:13:00;3.95;;;1.95;;
9260;SDS011;4667;42.726;23.252;2023-04-01T10:19:22;3.67;;;2.13;;
9260;SDS011;4667;42.726;23.252;2023-04-01T10:22:24;2.22;;;1.50;;
9260;SDS011;4667;42.726;23.252;2023-04-01T10:25:28;3.10;;;1.50;;
9260;SDS011;4667;42.726;23.252;2023-04-01T10:31:16;8.40;;;1.67;;
9260;SDS011;4667;42.726;23.252;2023-04-01T10:37:15;6.68;;;1.60;;
9260;SDS011;4667;42.726;23.252;2023-04-01T10:43:23;2.67;;;1.98;;
9260;SDS011;4667;42.726;23.252;2023-04-01T10:46:30;3.42;;;1.80;;
9260;SDS011;4667;42.726;23.252;2023-04-01T10:49:39;1.80;;;1.30;;
9260;SDS011;4667;42.726;23.252;2023-04-01T10:52:23;2.85;;;1.35;;
9260;SDS011;4667;42.726;23.252;2023-04-01T10:55:35;5.03;;;1.63;;
9260;SDS011;4667;42.726;23.252;2023-04-01T11:07:57;3.63;;;2.17;;
9260;SDS011;4667;42.726;23.252;2023-04-01T11:20:45;5.97;;;2.85;;
9260;SDS011;4667;42.726;23.252;2023-04-01T11:27:12;3.38;;;1.58;;
9260;SDS011;4667;42.726;23.252;2023-04-01T11:30:12;4.22;;;1.55;;
9260;SDS011;4667;42.726;23.252;2023-04-01T11:36:06;4.27;;;1.80;;
9260;SDS011;4667;42.726;23.252;2023-04-01T11:39:09;7.53;;;1.50;;
9260;SDS011;4667;42.726;23.252;2023-04-01T11:45:10;2.57;;;1.80;;
9260;SDS011;4667;42.726;23.252;2023-04-01T11:51:37;2.10;;;1.70;;
9260;SDS011;4667;42.726;23.252;2023-04-01T11:54:46;2.13;;;1.93;;
9260;SDS011;4667;42.726;23.252;2023-04-01T12:06:43;3.23;;;2.27;;
9260;SDS011;4667;42.726;23.252;2023-04-01T12:09:20;3.10;;;1.90;;
9260;SDS011;4667;42.726;23.252;2023-04-01T12:11:57;4.43;;;1.80;;
9260;SDS011;4667;42.726;23.252;2023-04-01T12:14:39;2.63;;;1.63;;
9260;SDS011;4667;42.726;23.252;2023-04-01T12:17:13;5.67;;;2.40;;
9260;SDS011;4667;42.726;23.252;2023-04-01T12:19:56;4.43;;;2.40;;
9260;SDS011;4667;42.726;23.252;2023-04-01T12:22:34;6.10;;;2.23;;
9260;SDS011;4667;42.726;23.252;2023-04-01T12:25:18;6.70;;;2.60;;
9260;SDS011;4667;42.726;23.252;2023-04-01T12:27:56;2.93;;;2.00;;
9260;SDS011;4667;42.726;23.252;2023-04-01T12:30:34;3.33;;;2.47;;
9260;SDS011;4667;42.726;23.252;2023-04-01T12:33:32;5.70;;;2.50;;
9260;SDS011;4667;42.726;23.252;2023-04-01T12:39:19;6.73;;;2.10;;
9260;SDS011;4667;42.726;23.252;2023-04-01T12:41:59;2.87;;;1.93;;
9260;SDS011;4667;42.726;23.252;2023-04-01T12:44:37;2.97;;;1.60;;
9260;SDS011;4667;42.726;23.252;2023-04-01T12:47:49;4.57;;;2.17;;
9260;SDS011;4667;42.726;23.252;2023-04-01T12:50:45;4.70;;;2.07;;
9260;SDS011;4667;42.726;23.252;2023-04-01T12:53:36;3.23;;;2.27;;
9260;SDS011;4667;42.726;23.252;2023-04-01T12:56:14;2.53;;;2.17;;
9260;SDS011;4667;42.726;23.252;2023-04-01T12:58:57;1.97;;;1.53;;
9260;SDS011;4667;42.726;23.252;2023-04-01T13:01:54;3.93;;;1.90;;
9260;SDS011;4667;42.726;23.252;2023-04-01T13:04:36;4.00;;;2.30;;
9260;SDS011;4667;42.726;23.252;2023-04-01T13:16:39;5.07;;;2.50;;
9260;SDS011;4667;42.726;23.252;2023-04-01T13:19:13;3.70;;;2.27;;
9260;SDS011;4667;42.726;23.252;2023-04-01T13:21:50;5.50;;;2.97;;
9260;SDS011;4667;42.726;23.252;2023-04-01T13:24:31;4.70;;;2.70;;
9260;SDS011;4667;42.726;23.252;2023-04-01T13:27:08;1.93;;;1.53;;
9260;SDS011;4667;42.726;23.252;2023-04-01T13:29:41;2.23;;;1.50;;
9260;SDS011;4667;42.726;23.252;2023-04-01T13:32:18;4.37;;;1.47;;
9260;SDS011;4667;42.726;23.252;2023-04-01T13:35:00;2.83;;;1.70;;
9260;SDS011;4667;42.726;23.252;2023-04-01T13:37:47;2.27;;;1.70;;
9260;SDS011;4667;42.726;23.252;2023-04-01T13:43:47;3.55;;;1.55;;
9260;SDS011;4667;42.726;23.252;2023-04-01T13:46:27;2.90;;;1.52;;
9260;SDS011;4667;42.726;23.252;2023-04-01T13:52:40;4.18;;;1.42;;
9260;SDS011;4667;42.726;23.252;2023-04-01T13:55:21;1.38;;;1.27;;
9260;SDS011;4667;42.726;23.252;2023-04-01T13:58:26;3.65;;;1.20;;
9260;SDS011;4667;42.726;23.252;2023-04-01T14:01:15;2.00;;;1.30;;
9260;SDS011;4667;42.726;23.252;2023-04-01T14:04:10;2.28;;;1.50;;
9260;SDS011;4667;42.726;23.252;2023-04-01T14:06:58;3.33;;;1.63;;
9260;SDS011;4667;42.726;23.252;2023-04-01T14:09:44;2.22;;;1.25;;
9260;SDS011;4667;42.726;23.252;2023-04-01T14:12:24;1.95;;;1.42;;
9260;SDS011;4667;42.726;23.252;2023-04-01T14:15:02;1.30;;;1.20;;
9260;SDS011;4667;42.726;23.252;2023-04-01T14:17:49;2.58;;;1.58;;
9260;SDS011;4667;42.726;23.252;2023-04-01T14:20:28;2.30;;;1.30;;
9260;SDS011;4667;42.726;23.252;2023-04-01T14:23:07;1.67;;;0.90;;
9260;SDS011;4667;42.726;23.252;2023-04-01T14:29:02;1.33;;;0.90;;
9260;SDS011;4667;42.726;23.252;2023-04-01T14:31:53;2.22;;;1.33;;
9260;SDS011;4667;42.726;23.252;2023-04-01T14:34:34;3.53;;;1.38;;
9260;SDS011;4667;42.726;23.252;2023-04-01T14:37:13;3.78;;;1.17;;
9260;SDS011;4667;42.726;23.252;2023-04-01T14:46:13;4.60;;;2.72;;
9260;SDS011;4667;42.726;23.252;2023-04-01T14:48:57;3.83;;;1.83;;
9260;SDS011;4667;42.726;23.252;2023-04-01T14:51:29;2.38;;;1.83;;
9260;SDS011;4667;42.726;23.252;2023-04-01T14:54:06;4.20;;;2.17;;
9260;SDS011;4667;42.726;23.252;2023-04-01T14:56:40;5.00;;;2.30;;
9260;SDS011;4667;42.726;23.252;2023-04-01T14:59:14;4.30;;;2.05;;
9260;SDS011;4667;42.726;23.252;2023-04-01T15:01:48;2.30;;;1.73;;
9260;SDS011;4667;42.726;23.252;2023-04-01T15:04:30;9.52;;;3.95;;
9260;SDS011;4667;42.726;23.252;2023-04-01T15:07:18;6.47;;;2.53;;
9260;SDS011;4667;42.726;23.252;2023-04-01T15:10:06;3.35;;;2.05;;
9260;SDS011;4667;42.726;23.252;2023-04-01T15:12:46;3.42;;;2.17;;
9260;SDS011;4667;42.726;23.252;2023-04-01T15:15:29;4.00;;;2.25;;
9260;SDS011;4667;42.726;23.252;2023-04-01T15:18:13;5.95;;;2.78;;
9260;SDS011;4667;42.726;23.252;2023-04-01T15:21:00;3.58;;;2.25;;
9260;SDS011;4667;42.726;23.252;2023-04-01T15:23:36;3.13;;;1.90;;
9260;SDS011;4667;42.726;23.252;2023-04-01T15:26:28;2.90;;;2.20;;
9260;SDS011;4667;42.726;23.252;2023-04-01T15:29:39;4.47;;;2.10;;
9260;SDS011;4667;42.726;23.252;2023-04-01T15:32:17;2.57;;;1.87;;
9260;SDS011;4667;42.726;23.252;2023-04-01T15:34:53;3.33;;;2.40;;
9260;SDS011;4667;42.726;23.252;2023-04-01T15:37:30;4.90;;;2.87;;
9260;SDS011;4667;42.726;23.252;2023-04-01T15:40:07;5.20;;;2.40;;
9260;SDS011;4667;42.726;23.252;2023-04-01T15:42:47;4.93;;;1.50;;
9260;SDS011;4667;42.726;23.252;2023-04-01T15:45:31;1.77;;;1.23;;
9260;SDS011;4667;42.726;23.252;2023-04-01T15:48:06;2.33;;;1.17;;
9260;SDS011;4667;42.726;23.252;2023-04-01T15:53:54;2.37;;;2.00;;
9260;SDS011;4667;42.726;23.252;2023-04-01T15:56:41;1.80;;;1.70;;
9260;SDS011;4667;42.726;23.252;2023-04-01T15:59:28;3.20;;;2.57;;
9260;SDS011;4667;42.726;23.252;2023-04-01T16:02:14;1.70;;;1.60;;
9260;SDS011;4667;42.726;23.252;2023-04-01T16:04:47;6.03;;;2.03;;
9260;SDS011;4667;42.726;23.252;2023-04-01T16:07:30;4.43;;;1.90;;
9260;SDS011;4667;42.726;23.252;2023-04-01T16:10:21;3.97;;;2.40;;
9260;SDS011;4667;42.726;23.252;2023-04-01T16:12:59;3.70;;;2.57;;
9260;SDS011;4667;42.726;23.252;2023-04-01T16:15:47;1.83;;;1.73;;
9260;SDS011;4667;42.726;23.252;2023-04-01T16:21:34;2.10;;;2.00;;
9260;SDS011;4667;42.726;23.252;2023-04-01T16:24:38;1.50;;;1.40;;
9260;SDS011;4667;42.726;23.252;2023-04-01T16:27:13;3.00;;;2.20;;
9260;SDS011;4667;42.726;23.252;2023-04-01T16:29:48;2.60;;;2.13;;
9260;SDS011;4667;42.726;23.252;2023-04-01T16:32:37;2.60;;;2.10;;
9260;SDS011;4667;42.726;23.252;2023-04-01T16:35:15;2.33;;;1.90;;
9260;SDS011;4667;42.726;23.252;2023-04-01T16:37:52;3.20;;;2.00;;
9260;SDS011;4667;42.726;23.252;2023-04-01T16:40:24;1.80;;;1.70;;
9260;SDS011;4667;42.726;23.252;2023-04-01T16:43:06;1.73;;;1.63;;
9260;SDS011;4667;42.726;23.252;2023-04-01T16:45:39;1.57;;;1.40;;
9260;SDS011;4667;42.726;23.252;2023-04-01T16:48:11;1.77;;;1.67;;
9260;SDS011;4667;42.726;23.252;2023-04-01T16:50:48;1.70;;;1.53;;
9260;SDS011;4667;42.726;23.252;2023-04-01T16:53:22;2.63;;;1.77;;
9260;SDS011;4667;42.726;23.252;2023-04-01T16:56:02;1.87;;;1.63;;
9260;SDS011;4667;42.726;23.252;2023-04-01T16:58:37;1.80;;;1.70;;
9260;SDS011;4667;42.726;23.252;2023-04-01T17:01:09;1.57;;;1.47;;
9260;SDS011;4667;42.726;23.252;2023-04-01T17:03:42;1.40;;;1.30;;
9260;SDS011;4667;42.726;23.252;2023-04-01T17:06:13;1.40;;;1.30;;
9260;SDS011;4667;42.726;23.252;2023-04-01T17:08:57;1.53;;;1.43;;
9260;SDS011;4667;42.726;23.252;2023-04-01T17:11:54;1.57;;;1.47;;
9260;SDS011;4667;42.726;23.252;2023-04-01T17:14:28;2.20;;;2.00;;
9260;SDS011;4667;42.726;23.252;2023-04-01T17:17:01;1.40;;;1.30;;
9260;SDS011;4667;42.726;23.252;2023-04-01T17:19:54;1.60;;;1.50;;
9260;SDS011;4667;42.726;23.252;2023-04-01T17:22:49;2.03;;;1.93;;
9260;SDS011;4667;42.726;23.252;2023-04-01T17:25:34;1.53;;;1.43;;
9260;SDS011;4667;42.726;23.252;2023-04-01T17:28:21;1.70;;;1.60;;
9260;SDS011;4667;42.726;23.252;2023-04-01T17:31:04;1.77;;;1.67;;
9260;SDS011;4667;42.726;23.252;2023-04-01T17:33:50;1.60;;;1.50;;
9260;SDS011;4667;42.726;23.252;2023-04-01T17:36:31;2.77;;;1.83;;
9260;SDS011;4667;42.726;23.252;2023-04-01T17:39:14;1.60;;;1.50;;
9260;SDS011;4667;42.726;23.252;2023-04-01T17:41:53;1.80;;;1.60;;
9260;SDS011;4667;42.726;23.252;2023-04-01T17:44:29;2.80;;;2.00;;
9260;SDS011;4667;42.726;23.252;2023-04-01T17:47:20;1.50;;;1.40;;
9260;SDS011;4667;42.726;23.252;2023-04-01T17:50:33;1.90;;;1.73;;
9260;SDS011;4667;42.726;23.252;2023-04-01T17:53:18;2.23;;;1.73;;
9260;SDS011;4667;42.726;23.252;2023-04-01T17:55:56;2.03;;;1.93;;
9260;SDS011;4667;42.726;23.252;2023-04-01T17:58:31;1.83;;;1.73;;
9260;SDS011;4667;42.726;23.252;2023-04-01T18:01:13;1.73;;;1.63;;